createdAt,value
2023-04-26T00:00:50.880Z,100.00
2023-04-26T00:06:14.987Z,100.00
2023-04-26T00:11:21.376Z,100.00
2023-04-26T00:17:00.112Z,100.00
2023-04-26T00:22:03.448Z,100.00
2023-04-26T00:27:40.348Z,100.00
2023-04-26T00:32:49.223Z,100.00
2023-04-26T00:37:52.599Z,100.00
2023-04-26T00:43:21.638Z,100.00
2023-04-26T00:48:31.296Z,100.00
2023-04-26T00:53:45.161Z,100.00
2023-04-26T00:59:10.735Z,100.00
2023-04-26T01:04:19.377Z,100.00
2023-04-26T01:09:38.529Z,100.00
2023-04-26T01:15:22.956Z,100.00
2023-04-26T01:20:53.096Z,100.00
2023-04-26T01:26:02.150Z,100.00
2023-04-26T01:31:05.641Z,100.00
2023-04-26T01:36:12.258Z,100.00
2023-04-26T01:41:16.063Z,100.00
2023-04-26T01:46:22.718Z,100.00
2023-04-26T01:51:27.296Z,100.00
2023-04-26T01:57:03.313Z,100.00
2023-04-26T02:02:12.906Z,100.00
2023-04-26T02:07:27.664Z,100.00
2023-04-26T02:12:33.744Z,100.00
2023-04-26T02:18:12.873Z,100.00
2023-04-26T02:23:24.656Z,100.00
2023-04-26T02:28:46.142Z,100.00
2023-04-26T02:34:07.442Z,100.00
2023-04-26T02:39:33.917Z,100.00
2023-04-26T02:44:40.012Z,100.00
2023-04-26T02:49:52.752Z,100.00
2023-04-26T02:55:04.677Z,100.00
2023-04-26T03:00:15.916Z,100.00
2023-04-26T03:05:20.229Z,100.00
2023-04-26T03:11:03.610Z,100.00
2023-04-26T03:17:07.743Z,100.00
2023-04-26T03:23:21.700Z,100.00
2023-04-26T03:28:59.922Z,100.00
2023-04-26T03:34:18.865Z,100.00
2023-04-26T03:39:45.022Z,100.00
2023-04-26T03:45:32.962Z,100.00
2023-04-26T03:51:06.520Z,100.00
2023-04-26T03:56:10.353Z,99.97
2023-04-26T04:01:29.238Z,99.96
2023-04-26T04:06:36.659Z,99.61
2023-04-26T04:11:43.039Z,98.95
2023-04-26T04:16:46.736Z,98.78
2023-04-26T04:21:50.178Z,98.24
2023-04-26T04:26:56.256Z,97.44
2023-04-26T04:32:05.400Z,96.42
2023-04-26T04:37:50.900Z,95.38
2023-04-26T04:42:56.771Z,94.61
2023-04-26T04:48:09.314Z,93.57
2023-04-26T04:53:16.388Z,92.72
2023-04-26T04:58:43.108Z,91.34
2023-04-26T05:04:00.241Z,90.07
2023-04-26T05:09:13.796Z,89.28
2023-04-26T05:14:17.546Z,89.10
2023-04-26T05:19:21.130Z,87.82
2023-04-26T05:24:24.687Z,87.39
2023-04-26T05:29:31.584Z,85.20
2023-04-26T05:34:52.139Z,81.35
2023-04-26T05:39:55.399Z,78.83
2023-04-26T05:45:04.536Z,76.13
2023-04-26T05:50:30.033Z,76.96
2023-04-26T05:55:40.296Z,76.94
2023-04-26T06:01:04.076Z,74.64
2023-04-26T06:06:11.116Z,72.12
2023-04-26T06:11:15.524Z,70.92
2023-04-26T06:16:24.706Z,69.53
2023-04-26T06:21:41.421Z,68.82
2023-04-26T06:26:45.289Z,69.52
2023-04-26T06:32:29.060Z,67.33
2023-04-26T06:38:13.079Z,67.60
2023-04-26T06:43:19.743Z,66.93
2023-04-26T06:49:28.178Z,64.07
2023-04-26T06:55:33.375Z,64.48
2023-04-26T07:00:57.429Z,64.47
2023-04-26T07:06:06.670Z,64.84
2023-04-26T07:11:28.077Z,64.12
2023-04-26T07:16:34.444Z,62.37
2023-04-26T07:22:00.829Z,64.06
2023-04-26T07:27:07.565Z,63.06
2023-04-26T07:32:44.114Z,62.60
2023-04-26T07:37:49.848Z,64.35
2023-04-26T07:44:04.909Z,63.50
2023-04-26T07:49:18.741Z,64.73
2023-04-26T07:54:40.229Z,64.24
2023-04-26T08:00:46.548Z,64.13
2023-04-26T08:05:50.373Z,62.46
2023-04-26T08:10:56.980Z,63.30
2023-04-26T08:16:42.280Z,63.77
2023-04-26T08:21:54.214Z,63.50
2023-04-26T08:27:11.692Z,63.95
2023-04-26T08:32:35.566Z,65.02
2023-04-26T08:38:02.280Z,65.64
2023-04-26T08:43:17.493Z,64.82
2023-04-26T08:48:54.103Z,63.57
2023-04-26T08:54:05.069Z,64.00
2023-04-26T08:59:31.352Z,63.63
2023-04-26T09:04:50.949Z,62.71
2023-04-26T09:10:28.343Z,60.28
2023-04-26T09:15:34.976Z,59.79
2023-04-26T09:21:10.626Z,58.13
2023-04-26T09:26:19.200Z,57.22
2023-04-26T09:31:48.644Z,57.93
2023-04-26T09:37:23.885Z,57.33
2023-04-26T09:42:40.103Z,58.32
2023-04-26T09:48:17.749Z,57.61
2023-04-26T09:53:51.108Z,56.15
2023-04-26T09:58:59.234Z,54.96
2023-04-26T10:04:04.460Z,53.95
2023-04-26T10:09:16.076Z,52.19
2023-04-26T10:14:40.007Z,52.24
2023-04-26T10:19:44.857Z,52.60
2023-04-26T10:24:52.594Z,51.75
2023-04-26T10:29:56.620Z,51.01
2023-04-26T10:35:32.532Z,50.80
2023-04-26T10:40:40.600Z,48.95
2023-04-26T10:45:48.470Z,49.40
2023-04-26T10:51:48.529Z,50.45
2023-04-26T10:57:14.384Z,52.10
2023-04-26T11:02:37.949Z,50.81
2023-04-26T11:08:35.444Z,51.45
2023-04-26T11:14:02.091Z,51.45
2023-04-26T11:19:14.767Z,51.62
2023-04-26T11:25:18.071Z,51.39
2023-04-26T11:30:27.026Z,50.66
2023-04-26T11:35:41.806Z,51.35
2023-04-26T11:41:19.831Z,50.75
2023-04-26T11:47:04.728Z,50.54
2023-04-26T11:53:18.971Z,50.89
2023-04-26T11:58:47.897Z,51.10
2023-04-26T12:03:56.169Z,51.62
2023-04-26T12:09:53.046Z,51.32
2023-04-26T12:15:19.671Z,52.27
2023-04-26T12:20:49.638Z,52.29
2023-04-26T12:26:44.975Z,50.87
2023-04-26T12:31:51.116Z,51.00
2023-04-26T12:37:37.272Z,50.09
2023-04-26T12:42:56.843Z,50.30
2023-04-26T12:48:08.126Z,49.41
2023-04-26T12:53:37.024Z,49.96
2023-04-26T12:59:03.646Z,50.62
2023-04-26T13:04:13.184Z,51.42
2023-04-26T13:09:22.225Z,51.10
2023-04-26T13:14:47.298Z,51.18
2023-04-26T13:20:11.740Z,50.93
2023-04-26T13:25:19.461Z,50.37
2023-04-26T13:30:30.524Z,49.94
2023-04-26T13:35:36.967Z,49.08
2023-04-26T13:40:40.691Z,48.44
2023-04-26T13:45:47.513Z,48.31
2023-04-26T13:52:05.601Z,48.18
2023-04-26T13:57:09.135Z,48.80
2023-04-26T14:02:35.673Z,49.02
2023-04-26T14:07:41.613Z,49.32
2023-04-26T14:12:45.206Z,49.07
2023-04-26T14:18:31.630Z,48.46
2023-04-26T14:23:34.985Z,48.90
2023-04-26T14:28:38.883Z,49.44
2023-04-26T14:33:44.889Z,49.39
2023-04-26T14:39:08.866Z,50.25
2023-04-26T14:44:51.003Z,50.36
2023-04-26T14:49:54.634Z,50.73
2023-04-26T14:55:41.944Z,50.40
2023-04-26T15:01:11.379Z,50.90
2023-04-26T15:06:18.143Z,51.41
2023-04-26T15:12:24.868Z,51.98
2023-04-26T15:17:47.123Z,52.51
2023-04-26T15:23:17.159Z,52.43
2023-04-26T15:28:32.072Z,53.19
2023-04-26T15:34:31.595Z,53.79
2023-04-26T15:40:31.856Z,53.75
2023-04-26T15:46:04.964Z,54.37
2023-04-26T15:51:11.101Z,54.36
2023-04-26T15:56:28.708Z,54.52
2023-04-26T16:01:32.323Z,54.61
2023-04-26T16:06:38.378Z,54.87
2023-04-26T16:12:06.067Z,54.93
2023-04-26T16:17:12.568Z,54.55
2023-04-26T16:22:45.058Z,54.49
2023-04-26T16:28:11.333Z,54.91
2023-04-26T16:33:35.584Z,54.81
2023-04-26T16:38:39.165Z,55.33
2023-04-26T16:43:53.195Z,55.58
2023-04-26T16:48:59.767Z,55.45
2023-04-26T16:54:05.741Z,55.38
2023-04-26T17:00:09.632Z,55.46
2023-04-26T17:05:37.980Z,55.61
2023-04-26T17:10:42.422Z,55.52
2023-04-26T17:16:00.238Z,55.61
2023-04-26T17:22:00.304Z,55.73
2023-04-26T17:27:08.355Z,56.06
2023-04-26T17:32:29.582Z,56.34
2023-04-26T17:38:14.220Z,56.61
2023-04-26T17:43:39.875Z,56.60
2023-04-26T17:48:55.573Z,56.88
2023-04-26T17:54:08.604Z,57.16
2023-04-26T17:59:47.934Z,57.24
2023-04-26T18:05:25.287Z,57.38
2023-04-26T18:11:40.298Z,57.39
2023-04-26T18:17:30.134Z,56.87
2023-04-26T18:23:47.233Z,56.83
2023-04-26T18:29:20.348Z,57.01
2023-04-26T19:04:23.559Z,57.46
2023-04-26T19:10:07.200Z,57.87
2023-04-26T19:15:25.204Z,58.45
2023-04-26T19:20:52.451Z,58.95
2023-04-26T19:26:06.716Z,58.80
2023-04-26T19:31:29.907Z,58.59
2023-04-26T19:36:36.719Z,59.12
2023-04-26T19:41:45.420Z,59.72
2023-04-26T19:47:13.887Z,60.33
2023-04-26T19:52:45.520Z,60.76
2023-04-26T19:58:21.332Z,60.98
2023-04-26T20:03:41.561Z,61.17
2023-04-26T20:09:02.453Z,61.77
2023-04-26T20:14:44.427Z,62.18
2023-04-26T20:20:33.962Z,62.70
2023-04-26T20:25:59.244Z,62.99
2023-04-26T20:31:46.968Z,63.32
2023-04-26T20:37:10.480Z,63.87
2023-04-26T20:42:23.666Z,64.48
2023-04-26T20:47:37.770Z,64.54
2023-04-26T20:52:47.294Z,65.01
2023-04-26T20:58:04.442Z,65.29
2023-04-26T21:03:17.213Z,66.06
2023-04-26T21:08:24.244Z,66.12
2023-04-26T21:13:48.192Z,66.59
2023-04-26T21:18:57.119Z,66.59
2023-04-26T21:24:30.004Z,66.91
2023-04-26T21:29:33.805Z,67.02
2023-04-26T21:34:45.653Z,67.22
2023-04-26T21:40:12.459Z,67.36
2023-04-26T21:46:16.204Z,67.40
2023-04-26T21:52:03.056Z,67.37
2023-04-26T21:57:40.942Z,67.30
2023-04-26T22:03:38.159Z,67.43
2023-04-26T22:09:49.706Z,67.53
2023-04-26T22:16:14.749Z,68.17
2023-04-26T22:22:03.325Z,68.02
2023-04-26T22:27:06.793Z,68.31
2023-04-26T22:32:30.513Z,68.41
2023-04-26T22:37:33.739Z,68.66
2023-04-26T22:42:49.970Z,68.56
2023-04-26T22:47:53.137Z,68.82
2023-04-26T22:52:56.607Z,69.10
2023-04-26T22:57:59.886Z,69.45
2023-04-26T23:03:03.290Z,69.38
2023-04-26T23:08:06.674Z,69.93
2023-04-26T23:13:09.917Z,69.92
2023-04-26T23:18:13.967Z,70.24
2023-04-26T23:23:17.148Z,71.19
2023-04-26T23:28:23.310Z,71.43
2023-04-26T23:33:35.555Z,71.79
2023-04-26T23:38:44.560Z,71.79
2023-04-26T23:43:48.116Z,72.12
2023-04-26T23:48:51.447Z,72.48
2023-04-26T23:53:54.672Z,72.93
2023-04-26T23:58:58.453Z,73.44
